CheckWX is a tool to help pilots better visualize weather data.  It is not intended as a substitute for an official pre-flight weather briefing.

22:31:36 UTC

KJAN TAF
Jackson-Medgar Wiley Evers International Airport
Jackson, Mississippi, USA
KJAN 221721Z 2218/2318 20005KT 3SM -SHRA BR BKN025 FM222100 18005KT 6SM -SHRA VCTS BKN035CB FM230000 17005KT P6SM VCTS OVC015CB FM230700 20005KT P6SM VCTS OVC008CB FM231300 30008KT P6SM OVC006

Nov-22@
18:00 UTC

Nov-22 @ 18:00 UTC

Nov-22@
21:00 UTC

Nov-22 @ 21:00 UTC

KJAN 221721Z 2218/2318 20005KT 3SM -SHRA BR BKN025

Expired

Wind
  • 200° at 5 KTS
Conditions
Light Rain, Mist
Cloud Levels
  • Broken at 2,500' AGL

Nov-22@
21:00 UTC

Nov-22 @ 21:00 UTC

Nov-23@
00:00 UTC

Nov-23 @ 00:00 UTC

FM222100 18005KT 6SM -SHRA VCTS BKN035CB

From

From Standard forecast or significant change

Wind
  • 180° at 5 KTS
Conditions
Light Rain, Area Thunderstorm
Cloud Levels
  • Broken at 3,500' AGL

Nov-23@
00:00 UTC

Nov-23 @ 00:00 UTC

Nov-23@
07:00 UTC

Nov-23 @ 07:00 UTC

FM230000 17005KT P6SM VCTS OVC015CB

From

From Standard forecast or significant change

Wind
  • 170° at 5 KTS
Conditions
Area Thunderstorm
Cloud Levels
  • Overcast at 1,500' AGL

Nov-23@
07:00 UTC

Nov-23 @ 07:00 UTC

Nov-23@
13:00 UTC

Nov-23 @ 13:00 UTC

FM230700 20005KT P6SM VCTS OVC008CB

From

From Standard forecast or significant change

Wind
  • 200° at 5 KTS
Conditions
Area Thunderstorm
Cloud Levels
  • Overcast at 800' AGL

Nov-23@
13:00 UTC

Nov-23 @ 13:00 UTC

Nov-23@
18:00 UTC

Nov-23 @ 18:00 UTC

FM231300 30008KT P6SM OVC006

From

From Standard forecast or significant change

Wind
  • 300° at 8 KTS
Cloud Levels
  • Overcast at 600' AGL